Weather observations for the past three days for
Lumberton Municipal Airport
Imperial (Metric)
Date Time (edt) Wind (mph) Vis. (mi.) Weather Sky Cond. Temperature (ºF) Relative Humidity Wind Chill (°F) Heat Index (°F) Pressure Precipitation (in)
Air Dwpt 6 hour altimeter (in) sea level (mb) 1 hr 3 hr 6 hr
Max. Min.
05 20:56 SE 10 10.00 Fair CLR 68 55 63% 30 1015.6
05 19:56 S 12 G 22 10.00 Fair CLR 71.1 54 82 71.1 55% 29.99 1015.3
05 18:56 S 12 G 23 10.00 Fair CLR 75 55 50% 78 29.98 1015.0
05 17:56 SE 14 G 22 10.00 Fair CLR 78.1 54 43% 79 29.97 1014.9
05 16:56 SE 12 G 21 10.00 A Few Clouds FEW060 80.1 53.1 39% 80 29.98 1015.0
05 15:56 SE 8 G 18 10.00 Mostly Cloudy BKN060 81 54 39% 81 29.99 1015.3
05 14:56 S 8 G 18 10.00 A Few Clouds FEW060 80.1 53.1 39% 80 30.02 1016.4
05 13:56 S 7 G 23 10.00 Partly Cloudy SCT050 77 53.1 79 57 43% 78 30.03 1016.9
05 12:56 S 7 G 18 10.00 Fair CLR 78.1 53.1 42% 79 30.04 1017.2
05 11:56 S 10 G 17 10.00 Fair CLR 75.9 54 47% 78 30.06 1017.9
05 10:56 SW 8 G 17 10.00 Fair CLR 73 54 51% 30.07 1018.1
05 09:56 SW 10 10.00 Fair CLR 70 55 59% 30.07 1018.1
05 08:56 S 8 10.00 Fair CLR 66.9 55 66% 30.06 1017.9
05 07:56 S 3 10.00 Fair CLR 57 52 57.9 48.9 83% 30.06 1017.7
05 06:56 Calm 10.00 Fair CLR 50 48.9 96% 30.05 1017.3
05 05:56 Calm 10.00 Fair CLR 51.1 48.9 92% 30.03 1016.7
05 04:56 Calm 10.00 Fair CLR 52 50 93% 30.02 1016.3
05 03:56 Calm 10.00 Fair CLR 52 48.9 89% 30.01 1016.1
05 02:56 Calm 10.00 Fair CLR 55.9 48.9 77% 30.01 1016.0
05 01:56 S 5 10.00 Fair CLR 57.9 48.9 70 57.9 72% 30.02 1016.3
05 00:56 S 6 10.00 Fair CLR 60.1 48.9 67% 30.03 1016.7
04 23:56 S 6 10.00 Fair CLR 62.1 48.9 62% 30.03 1016.7
04 22:56 S 9 10.00 Fair CLR 64 48.9 58% 30.03 1016.8
04 21:56 S 5 10.00 Fair CLR 64 48.9 58% 30.02 1016.6
04 20:56 S 6 10.00 Fair CLR 66 48.9 54% 30 1015.9
04 19:56 S 9 G 21 10.00 Fair CLR 70 50 80.1 70 49% 29.99 1015.3
04 18:56 S 15 G 24 10.00 Fair CLR 73.9 52 46% 29.96 1014.4
04 17:56 S 8 10.00 Fair CLR 78.1 43 29% 78 29.96 1014.3
04 16:56 S 9 10.00 Fair CLR 79 43 28% 78 29.96 1014.5
04 15:56 S 10 G 21 10.00 Fair CLR 79 43 28% 78 29.98 1015.0
04 14:56 SW 9 G 18 10.00 Fair CLR 77 42.1 29% 78 29.99 1015.6
04 13:56 S 10 G 20 10.00 Fair CLR 77 43 77 54 30% 78 30.02 1016.4
04 12:56 SW 5 10.00 Fair CLR 73.9 42.1 32% 30.03 1016.8
04 11:56 W 9 G 20 10.00 Fair CLR 73 44.1 35% 30.05 1017.4
04 10:56 SW 5 10.00 Fair CLR 70 48 46% 30.06 1017.8
04 09:56 SW 6 10.00 Fair CLR 64.9 50 59% 30.06 1017.7
04 08:56 SW 7 10.00 Fair CLR 61 51.1 70% 30.06 1017.9
04 07:56 Calm 10.00 Fair CLR 54 48.9 54 46 83% 30.06 1017.8
04 06:56 Calm 10.00 Fair CLR 46 46 100% 30.07 1018.1
04 05:56 E 3 10.00 Fair CLR 46.9 45 93% 30.06 1017.7
04 04:56 SE 3 10.00 Fair CLR 46.9 46 97% 30.06 1017.7
04 03:56 Calm 10.00 Fair CLR 50 46 86% 30.06 1017.8
04 02:56 Calm 10.00 Fair CLR 50 46.9 89% 30.06 1017.8
04 01:56 SW 5 10.00 Fair CLR 53.1 46.9 62.1 52 80% 30.07 1018.1
04 00:56 S 6 10.00 Fair CLR 53.1 46.9 80% 30.07 1018.2
03 23:56 S 6 10.00 Fair CLR 54 46 75% 30.07 1018.1
03 22:56 S 3 10.00 Fair CLR 54 44.1 69% 30.07 1018.0
03 21:56 S 3 10.00 Fair CLR 55 45 69% 30.05 1017.5
03 20:56 S 3 10.00 Fair CLR 55 46.9 74% 30.03 1016.9
03 19:56 S 3 10.00 Fair CLR 62.1 41 69.1 62.1 46% 30.02 1016.3
03 18:56 W 7 10.00 Fair CLR 68 37.9 33% 30.01 1016.2
03 17:56 W 10 10.00 Fair CLR 68 37 32% 30.01 1016.3
03 16:56 Vrbl 5 10.00 Fair CLR 68 37 32% 30.01 1016.1
03 15:56 W 9 G 16 10.00 Fair CLR 66.9 37.9 35% 30.03 1016.9
03 14:56 W 14 G 23 10.00 Fair CLR 66 37.9 36% 30.06 1017.8
03 13:56 NW 13 G 22 10.00 Fair CLR 64.9 39 64.9 48.9 39% 30.08 1018.6
03 12:56 W 8 10.00 Fair CLR 63 39.9 43% 30.11 1019.4
03 11:56 W 8 10.00 Fair CLR 60.1 37.9 44% 30.12 1020.1
03 10:56 N 10 10.00 Fair CLR 59 37 44% 30.12 1019.9
03 09:56 N 9 10.00 Fair CLR 55.9 39 53% 30.12 1019.9
03 08:56 N 7 10.00 Fair CLR 53.1 41 64% 30.12 1020.0
03 07:56 N 7 10.00 Fair CLR 48.9 39 48.9 41 69% 46 30.11 1019.5
03 06:56 NW 5 10.00 Fair CLR 43 41 93% 41 30.08 1018.4
03 05:56 Calm 8.00 Fair CLR 42.1 41 96% 30.04 1017.4
03 04:56 NW 3 6.00 Fog/Mist CLR 43 42.1 97% 30.03 1017.0
03 03:56 NW 5 5.00 Fog/Mist CLR 45 45 100% 43 30.01 1016.3
03 02:56 Calm 5.00 Fog/Mist CLR 45 45 100% 29.99 1015.7
03 01:56 Calm 5.00 Fog/Mist FEW120 46 45 54 46 96% 29.99 1015.4
03 00:56 W 3 6.00 Fog/Mist CLR 46.9 46.9 100% 29.98 1015.2
02 23:56 W 3 6.00 Fog/Mist CLR 48 48 100% 29.97 1014.9
02 21:56 NW 3 10.00 Mostly Cloudy BKN120 52 50 93% 29.95 1014.2
Date Time (edt) Wind (mph) Vis. (mi.) Weather Sky Cond. Air Dwpt Max. Min. Relative Humidity Wind Chill (°F) Heat Index (°F) altimeter (in) sea level (mb) 1 hr 3 hr 6 hr
6 hour
Temperature (ºF) Pressure Precipitation (in)